createdAt,value
2023-03-06T00:00:54.205Z,14.05
2023-03-06T00:03:22.449Z,12.88
2023-03-06T00:05:49.612Z,13.98
2023-03-06T00:08:16.451Z,14.57
2023-03-06T00:10:43.331Z,12.95
2023-03-06T00:13:14.220Z,14.57
2023-03-06T00:15:41.596Z,15.70
2023-03-06T00:18:08.807Z,14.40
2023-03-06T00:20:36.845Z,12.77
2023-03-06T00:23:04.406Z,15.95
2023-03-06T00:25:31.148Z,15.55
2023-03-06T00:27:57.939Z,15.07
2023-03-06T00:30:25.462Z,16.60
2023-03-06T00:32:53.355Z,17.60
2023-03-06T00:35:20.732Z,15.02
2023-03-06T00:37:47.540Z,15.23
2023-03-06T00:40:17.129Z,14.55
2023-03-06T00:42:44.485Z,15.65
2023-03-06T00:45:11.946Z,16.17
2023-03-06T00:47:38.973Z,17.38
2023-03-06T00:50:06.132Z,15.27
2023-03-06T00:52:33.034Z,14.63
2023-03-06T00:54:59.885Z,16.65
2023-03-06T00:57:26.633Z,15.95
2023-03-06T00:59:53.362Z,14.75
2023-03-06T01:02:20.191Z,13.23
2023-03-06T01:04:46.939Z,13.18
2023-03-06T01:07:13.703Z,13.18
2023-03-06T01:09:40.433Z,15.45
2023-03-06T01:12:07.586Z,13.50
2023-03-06T01:14:34.555Z,12.10
2023-03-06T01:17:01.298Z,12.85
2023-03-06T01:19:28.100Z,14.43
2023-03-06T01:21:54.953Z,12.30
2023-03-06T01:24:23.987Z,12.57
2023-03-06T01:26:50.747Z,13.35
2023-03-06T01:29:17.617Z,13.88
2023-03-06T01:31:44.459Z,13.98
2023-03-06T01:34:11.258Z,11.60
2023-03-06T01:36:38.040Z,12.77
2023-03-06T01:39:04.934Z,13.38
2023-03-06T01:41:32.763Z,16.10
2023-03-06T01:43:59.794Z,12.82
2023-03-06T01:46:30.158Z,13.20
2023-03-06T01:49:08.411Z,11.73
2023-03-06T01:51:39.703Z,12.88
2023-03-06T01:54:14.988Z,14.07
2023-03-06T01:56:46.380Z,12.13
2023-03-06T01:59:13.567Z,14.40
2023-03-06T02:01:41.651Z,13.27
2023-03-06T02:04:09.959Z,12.65
2023-03-06T02:06:39.695Z,13.63
2023-03-06T02:09:07.086Z,12.85
2023-03-06T02:11:33.904Z,23.83
2023-03-06T02:14:01.323Z,13.90
2023-03-06T02:16:31.167Z,12.57
2023-03-06T02:19:00.625Z,13.43
2023-03-06T02:21:33.027Z,15.00
2023-03-06T02:24:29.517Z,13.65
2023-03-06T02:26:57.862Z,12.52
2023-03-06T02:29:27.649Z,14.40
2023-03-06T02:31:54.554Z,13.88
2023-03-06T02:34:21.267Z,14.95
2023-03-06T02:36:52.645Z,15.88
2023-03-06T02:39:25.306Z,16.00
2023-03-06T02:41:52.171Z,13.68
2023-03-06T02:44:19.165Z,16.05
2023-03-06T02:46:45.919Z,15.15
2023-03-06T02:49:12.644Z,15.57
2023-03-06T02:51:39.437Z,15.93
2023-03-06T02:54:06.447Z,16.02
2023-03-06T02:56:33.208Z,13.75
2023-03-06T02:58:59.950Z,13.88
2023-03-06T03:01:26.773Z,13.95
2023-03-06T03:03:53.600Z,14.80
2023-03-06T03:06:20.412Z,14.75
2023-03-06T03:08:47.198Z,14.82
2023-03-06T03:11:14.140Z,17.67
2023-03-06T03:13:40.856Z,17.08
2023-03-06T03:16:09.776Z,14.57
2023-03-06T03:18:36.611Z,16.35
2023-03-06T03:21:07.860Z,20.00
2023-03-06T03:23:34.687Z,17.65
2023-03-06T03:26:13.991Z,15.23
2023-03-06T03:28:40.724Z,15.35
2023-03-06T03:31:10.081Z,14.68
2023-03-06T03:33:37.314Z,15.18
2023-03-06T03:36:06.045Z,15.50
2023-03-06T03:38:34.097Z,14.82
2023-03-06T03:41:02.113Z,14.15
2023-03-06T03:43:28.907Z,14.75
2023-03-06T03:45:55.652Z,14.05
2023-03-06T03:48:22.469Z,13.65
2023-03-06T03:50:49.353Z,14.60
2023-03-06T03:53:16.093Z,14.07
2023-03-06T03:55:42.944Z,19.67
2023-03-06T03:58:09.739Z,13.93
2023-03-06T04:00:36.463Z,15.07
2023-03-06T04:03:03.349Z,14.00
2023-03-06T04:05:30.187Z,14.07
2023-03-06T04:07:56.915Z,14.52
2023-03-06T04:10:23.670Z,16.52
2023-03-06T04:12:50.446Z,16.88
2023-03-06T04:15:17.235Z,16.38
2023-03-06T04:17:43.967Z,15.93
2023-03-06T04:20:11.412Z,16.02
2023-03-06T04:22:38.164Z,17.35
2023-03-06T04:25:05.335Z,16.92
2023-03-06T04:27:32.183Z,16.23
2023-03-06T04:30:01.553Z,18.30
2023-03-06T04:32:31.330Z,18.50
2023-03-06T04:34:58.187Z,16.65
2023-03-06T04:37:27.029Z,16.63
2023-03-06T04:39:53.809Z,15.85
2023-03-06T04:42:20.588Z,16.33
2023-03-06T04:44:47.388Z,14.80
2023-03-06T04:47:14.338Z,15.32
2023-03-06T04:49:41.162Z,15.57
2023-03-06T04:52:08.344Z,15.15
2023-03-06T04:54:35.179Z,14.40
2023-03-06T04:57:02.017Z,15.35
2023-03-06T04:59:28.749Z,14.80
2023-03-06T05:01:55.759Z,14.43
2023-03-06T05:04:22.679Z,13.68
2023-03-06T05:06:49.632Z,14.85
2023-03-06T05:09:16.822Z,13.35
2023-03-06T05:11:43.534Z,14.13
2023-03-06T05:14:10.326Z,12.73
2023-03-06T05:16:37.139Z,15.30
2023-03-06T05:19:04.018Z,11.15
2023-03-06T05:21:30.768Z,12.68
2023-03-06T05:23:57.603Z,12.63
2023-03-06T05:26:24.401Z,10.10
2023-03-06T05:28:51.208Z,13.23
2023-03-06T05:31:18.126Z,11.82
2023-03-06T05:33:44.959Z,10.60
2023-03-06T05:36:11.807Z,12.45
2023-03-06T05:38:38.694Z,11.45
2023-03-06T05:41:05.700Z,11.40
2023-03-06T05:43:32.535Z,12.77
2023-03-06T05:46:04.117Z,11.88
2023-03-06T05:48:31.115Z,13.38
2023-03-06T05:50:59.495Z,11.60
2023-03-06T05:53:26.908Z,9.35
2023-03-06T05:56:11.891Z,9.95
2023-03-06T05:58:38.911Z,10.75
2023-03-06T06:01:18.016Z,10.73
2023-03-06T06:03:45.001Z,9.80
2023-03-06T06:06:13.873Z,8.38
2023-03-06T06:08:41.354Z,10.48
2023-03-06T06:11:10.576Z,10.02
2023-03-06T06:13:38.558Z,11.73
2023-03-06T06:16:15.897Z,11.20
2023-03-06T06:18:43.592Z,13.45
2023-03-06T06:21:13.167Z,9.77
2023-03-06T06:23:40.148Z,11.43
2023-03-06T06:26:08.850Z,12.00
2023-03-06T06:28:36.226Z,9.98
2023-03-06T06:31:09.696Z,10.35
2023-03-06T06:33:36.581Z,12.32
2023-03-06T06:36:03.538Z,11.60
2023-03-06T06:38:30.282Z,9.07
2023-03-06T06:41:30.687Z,8.35
2023-03-06T06:43:43.807Z,10.63
2023-03-06T06:46:47.093Z,8.27
2023-03-06T06:48:57.318Z,9.88
2023-03-06T06:51:24.107Z,11.02
2023-03-06T06:53:54.066Z,9.95
2023-03-06T06:56:20.821Z,6.88
2023-03-06T06:58:49.588Z,9.60
2023-03-06T07:01:16.601Z,14.65
2023-03-06T07:03:43.460Z,9.18
2023-03-06T07:06:10.593Z,8.77
2023-03-06T07:08:37.631Z,12.18
2023-03-06T07:11:14.090Z,10.63
2023-03-06T07:13:40.925Z,12.68
2023-03-06T07:16:08.011Z,8.38
2023-03-06T07:18:36.576Z,8.38
2023-03-06T07:21:03.938Z,9.82
2023-03-06T07:23:31.211Z,7.25
2023-03-06T07:25:58.472Z,9.43
2023-03-06T07:28:25.221Z,9.27
2023-03-06T07:30:52.039Z,9.70
2023-03-06T07:33:18.814Z,8.50
2023-03-06T07:35:45.642Z,8.23
2023-03-06T07:38:12.576Z,8.73
2023-03-06T07:40:39.391Z,9.90
2023-03-06T07:43:18.614Z,10.32
2023-03-06T07:45:47.061Z,10.75
2023-03-06T07:48:14.838Z,7.68
2023-03-06T07:50:42.052Z,9.90
2023-03-06T07:53:10.784Z,9.07
2023-03-06T07:55:40.506Z,6.43
2023-03-06T07:58:07.258Z,8.85
2023-03-06T08:00:34.385Z,7.43
2023-03-06T08:03:01.364Z,6.80
2023-03-06T08:05:28.168Z,11.65
2023-03-06T08:07:54.919Z,6.75
2023-03-06T08:10:21.707Z,5.05
2023-03-06T08:12:48.475Z,6.68
2023-03-06T08:15:15.323Z,8.00
2023-03-06T08:17:42.103Z,4.50
2023-03-06T08:20:10.448Z,5.68
2023-03-06T08:22:37.830Z,8.23
2023-03-06T08:25:06.046Z,6.85
2023-03-06T08:27:34.289Z,4.93
2023-03-06T08:30:01.600Z,5.97
2023-03-06T08:32:31.212Z,7.35
2023-03-06T08:34:57.995Z,7.50
2023-03-06T08:37:24.934Z,5.38
2023-03-06T08:39:51.784Z,5.93
2023-03-06T08:42:18.617Z,7.35
2023-03-06T08:44:45.497Z,3.95
2023-03-06T08:47:12.357Z,9.32
2023-03-06T08:49:39.788Z,3.75
2023-03-06T08:52:08.133Z,6.88
2023-03-06T08:54:36.434Z,5.25
2023-03-06T08:57:03.602Z,4.88
2023-03-06T08:59:30.361Z,5.05
2023-03-06T09:01:57.231Z,7.93
2023-03-06T09:04:24.102Z,6.45
2023-03-06T09:06:50.923Z,4.72
2023-03-06T09:09:17.778Z,4.43
2023-03-06T09:11:44.720Z,4.00
2023-03-06T09:14:11.584Z,3.85
2023-03-06T09:16:38.645Z,1.27
2023-03-06T09:19:05.550Z,5.25
2023-03-06T09:21:32.344Z,8.95
2023-03-06T09:23:59.464Z,6.43
2023-03-06T09:26:39.568Z,5.50
2023-03-06T09:29:12.558Z,8.48
2023-03-06T09:31:39.350Z,7.57
2023-03-06T09:34:06.234Z,3.55
2023-03-06T09:36:42.800Z,7.03
2023-03-06T09:39:16.237Z,7.95
2023-03-06T09:41:43.174Z,5.15
2023-03-06T09:44:20.215Z,5.10
2023-03-06T09:47:08.404Z,5.40
2023-03-06T09:49:44.298Z,7.50
2023-03-06T09:52:31.525Z,5.03
2023-03-06T09:55:24.126Z,5.78
2023-03-06T09:58:19.854Z,9.82
2023-03-06T10:00:58.856Z,4.43
2023-03-06T10:03:36.914Z,2.58
2023-03-06T10:06:03.762Z,2.28
2023-03-06T10:09:02.782Z,8.77
2023-03-06T10:11:42.695Z,3.67
2023-03-06T10:14:44.041Z,4.80
2023-03-06T10:17:22.378Z,2.40
2023-03-06T10:19:49.936Z,4.47
2023-03-06T10:22:37.087Z,5.70
2023-03-06T10:25:22.101Z,3.15
2023-03-06T10:28:02.078Z,7.68
2023-03-06T10:30:56.942Z,3.22
2023-03-06T10:33:44.947Z,3.88
2023-03-06T10:36:19.314Z,4.28
2023-03-06T10:38:49.894Z,5.80
2023-03-06T10:41:21.448Z,5.13
2023-03-06T10:44:09.426Z,4.55
2023-03-06T10:46:44.306Z,8.75
2023-03-06T10:49:23.562Z,5.68
2023-03-06T10:52:09.694Z,4.90
2023-03-06T10:54:39.446Z,4.57
2023-03-06T10:57:28.619Z,5.00
2023-03-06T11:00:22.831Z,4.78
2023-03-06T11:03:15.956Z,2.38
2023-03-06T11:06:10.837Z,5.53
2023-03-06T11:08:40.251Z,5.45
2023-03-06T11:11:11.964Z,4.97
2023-03-06T11:13:40.630Z,4.43
2023-03-06T11:16:13.622Z,7.35
2023-03-06T11:18:42.817Z,3.92
2023-03-06T11:21:36.359Z,3.45
2023-03-06T11:24:11.952Z,3.08
2023-03-06T11:26:45.870Z,4.88
2023-03-06T11:29:36.330Z,3.45
2023-03-06T11:32:57.682Z,4.65
2023-03-06T11:35:35.271Z,2.28
2023-03-06T11:38:02.062Z,3.47
2023-03-06T11:40:44.941Z,3.47
2023-03-06T11:43:42.388Z,2.35
2023-03-06T11:46:23.684Z,1.75
2023-03-06T11:49:13.802Z,4.85
2023-03-06T11:51:47.707Z,4.57
2023-03-06T11:54:14.572Z,1.88
2023-03-06T11:56:57.647Z,4.38
2023-03-06T12:00:08.680Z,4.93
2023-03-06T12:02:58.981Z,4.40
2023-03-06T12:06:02.111Z,4.68
2023-03-06T12:08:47.053Z,2.75
2023-03-06T12:11:30.703Z,4.43
2023-03-06T12:14:13.452Z,5.15
2023-03-06T12:16:46.258Z,4.05
2023-03-06T12:19:31.624Z,5.25
2023-03-06T12:22:13.918Z,5.70
2023-03-06T12:24:59.403Z,3.53
2023-03-06T12:27:40.821Z,3.10
2023-03-06T12:30:36.261Z,3.97
2023-03-06T12:33:24.694Z,4.13
2023-03-06T12:36:29.046Z,7.20
2023-03-06T12:39:08.488Z,9.80
2023-03-06T12:41:44.115Z,2.92
2023-03-06T12:44:35.612Z,6.13
2023-03-06T12:47:08.210Z,2.83
2023-03-06T12:49:38.808Z,4.22
2023-03-06T12:52:08.258Z,6.82
2023-03-06T12:54:39.028Z,4.07
2023-03-06T12:57:08.596Z,8.48
2023-03-06T12:59:49.347Z,9.50
2023-03-06T13:02:40.368Z,5.13
2023-03-06T13:05:25.603Z,5.35
2023-03-06T13:08:09.975Z,4.32
2023-03-06T13:10:39.970Z,3.17
2023-03-06T13:13:32.337Z,13.70
2023-03-06T13:16:11.785Z,3.95
2023-03-06T13:18:38.582Z,4.63
2023-03-06T13:21:05.517Z,1.27
2023-03-06T13:23:32.354Z,1.83
2023-03-06T13:26:01.029Z,8.75
2023-03-06T13:28:50.092Z,3.22
2023-03-06T13:31:54.970Z,1.95
2023-03-06T13:34:37.330Z,3.03
2023-03-06T13:37:25.100Z,4.72
2023-03-06T13:40:01.626Z,2.33
2023-03-06T13:42:35.271Z,2.40
2023-03-06T13:45:15.751Z,1.42
2023-03-06T13:48:21.432Z,3.65
2023-03-06T13:52:12.853Z,4.00
2023-03-06T13:55:00.942Z,3.80
2023-03-06T13:57:38.761Z,5.78
2023-03-06T14:00:17.909Z,5.72
2023-03-06T14:02:54.827Z,6.20
2023-03-06T14:05:22.282Z,6.30
2023-03-06T14:08:06.512Z,4.07
2023-03-06T14:10:35.740Z,6.50
2023-03-06T14:13:30.057Z,5.95
2023-03-06T14:15:59.133Z,7.20
2023-03-06T14:18:38.483Z,6.28
2023-03-06T14:21:13.469Z,5.10
2023-03-06T14:23:46.446Z,5.38
2023-03-06T14:26:15.389Z,8.55
2023-03-06T14:28:44.273Z,5.32
2023-03-06T14:31:18.093Z,8.10
2023-03-06T14:33:59.879Z,7.80
2023-03-06T14:36:32.102Z,6.93
2023-03-06T14:39:04.288Z,5.68
2023-03-06T14:41:33.735Z,3.15
2023-03-06T14:44:19.654Z,6.30
2023-03-06T14:46:50.763Z,3.60
2023-03-06T14:49:20.637Z,5.43
2023-03-06T14:51:54.051Z,7.65
2023-03-06T14:54:26.181Z,7.07
2023-03-06T14:56:59.168Z,3.50
2023-03-06T14:59:29.454Z,5.35
2023-03-06T15:02:03.804Z,3.90
2023-03-06T15:05:35.404Z,6.25
2023-03-06T15:08:06.976Z,6.78
2023-03-06T15:10:38.756Z,7.40
2023-03-06T15:16:08.040Z,6.97
2023-03-06T15:18:38.889Z,5.03
2023-03-06T15:21:27.478Z,7.40
2023-03-06T15:23:56.841Z,2.40
2023-03-06T15:26:31.755Z,4.80
2023-03-06T15:29:18.659Z,7.63
2023-03-06T15:31:46.186Z,4.78
2023-03-06T15:34:12.994Z,4.78
2023-03-06T15:36:41.248Z,4.20
2023-03-06T15:39:30.286Z,5.72
2023-03-06T15:42:07.667Z,5.57
2023-03-06T15:44:34.992Z,6.47
2023-03-06T15:47:09.510Z,5.18
2023-03-06T15:49:38.179Z,6.97
2023-03-06T15:52:06.500Z,7.68
2023-03-06T15:54:33.382Z,5.30
2023-03-06T15:57:00.927Z,10.00
2023-03-06T15:59:33.309Z,7.55
2023-03-06T16:02:03.987Z,7.60
2023-03-06T16:04:30.957Z,5.95
2023-03-06T16:06:57.701Z,9.43
2023-03-06T16:09:24.561Z,4.70
2023-03-06T16:11:51.433Z,6.30
2023-03-06T16:14:21.470Z,6.70
2023-03-06T16:16:49.354Z,8.20
2023-03-06T16:19:29.249Z,6.43
2023-03-06T16:21:56.924Z,5.35
2023-03-06T16:24:26.107Z,5.50
2023-03-06T16:26:54.979Z,5.47
2023-03-06T16:29:26.685Z,7.35
2023-03-06T16:31:55.309Z,7.15
2023-03-06T16:34:22.606Z,6.82
2023-03-06T16:36:50.249Z,5.68
2023-03-06T16:39:19.491Z,8.15
2023-03-06T16:41:46.628Z,4.57
2023-03-06T16:44:13.550Z,6.60
2023-03-06T16:46:45.913Z,6.88
2023-03-06T16:49:24.828Z,5.93
2023-03-06T16:51:52.454Z,6.93
2023-03-06T16:54:19.842Z,6.75
2023-03-06T16:56:46.849Z,4.57
2023-03-06T16:59:13.673Z,4.65
2023-03-06T17:01:43.275Z,4.90
2023-03-06T17:04:10.801Z,8.38
2023-03-06T17:06:38.610Z,5.97
2023-03-06T17:09:05.667Z,7.60
2023-03-06T17:11:32.633Z,4.90
2023-03-06T17:13:59.636Z,3.42
2023-03-06T17:16:26.646Z,5.72
2023-03-06T17:18:55.126Z,5.25
2023-03-06T17:21:22.043Z,4.68
2023-03-06T17:23:50.802Z,6.68
2023-03-06T17:26:19.116Z,8.95
2023-03-06T17:28:47.080Z,6.53
2023-03-06T17:31:27.629Z,8.30
2023-03-06T17:33:59.133Z,6.30
2023-03-06T17:36:27.931Z,6.35
2023-03-06T17:38:58.952Z,5.22
2023-03-06T17:41:26.104Z,6.95
2023-03-06T17:43:55.741Z,9.90
2023-03-06T17:46:22.591Z,7.75
2023-03-06T17:48:49.489Z,10.23
2023-03-06T17:51:16.397Z,6.68
2023-03-06T17:53:43.209Z,5.45
2023-03-06T17:56:12.802Z,6.45
2023-03-06T17:58:39.545Z,4.18
2023-03-06T18:01:32.749Z,6.43
2023-03-06T18:03:59.649Z,5.55
2023-03-06T18:06:30.105Z,5.95
2023-03-06T18:08:56.989Z,6.97
2023-03-06T18:11:24.172Z,7.80
2023-03-06T18:13:51.303Z,6.70
2023-03-06T18:16:21.126Z,7.75
2023-03-06T18:18:51.013Z,7.57
2023-03-06T18:21:17.866Z,6.28
2023-03-06T18:23:44.826Z,5.45
2023-03-06T18:26:15.655Z,10.75
2023-03-06T18:28:45.056Z,9.03
2023-03-06T18:31:16.027Z,6.25
2023-03-06T18:33:43.099Z,8.70
2023-03-06T18:36:09.984Z,7.22
2023-03-06T18:38:37.966Z,5.03
2023-03-06T18:41:09.903Z,7.10
2023-03-06T18:43:38.404Z,6.68
2023-03-06T18:46:06.183Z,6.15
2023-03-06T18:48:33.166Z,9.50
2023-03-06T18:51:05.075Z,10.00
2023-03-06T18:53:31.947Z,6.20
2023-03-06T18:55:58.848Z,11.10
2023-03-06T18:58:25.767Z,9.75
2023-03-06T19:00:58.316Z,10.30
2023-03-06T19:03:26.029Z,10.77
2023-03-06T19:05:52.990Z,6.75
2023-03-06T19:08:19.875Z,8.30
2023-03-06T19:10:47.307Z,9.30
2023-03-06T19:13:14.816Z,9.77
2023-03-06T19:15:49.188Z,10.55
2023-03-06T19:18:17.993Z,8.65
2023-03-06T19:20:45.366Z,7.72
2023-03-06T19:23:12.195Z,9.68
2023-03-06T19:25:39.258Z,9.25
2023-03-06T19:28:06.268Z,7.28
2023-03-06T19:30:33.045Z,8.18
2023-03-06T19:33:00.044Z,8.02
2023-03-06T19:35:27.216Z,8.80
2023-03-06T19:37:54.051Z,10.57
2023-03-06T19:40:21.008Z,11.73
2023-03-06T19:42:47.938Z,7.78
2023-03-06T19:45:14.745Z,7.65
2023-03-06T19:47:41.520Z,10.60
2023-03-06T19:50:09.464Z,10.25
2023-03-06T19:52:38.374Z,8.95
2023-03-06T19:55:06.064Z,7.43
2023-03-06T19:57:32.880Z,7.78
2023-03-06T19:59:59.621Z,8.63
2023-03-06T20:02:27.270Z,8.80
2023-03-06T20:04:55.070Z,9.20
2023-03-06T20:07:21.968Z,8.07
2023-03-06T20:09:48.730Z,7.85
2023-03-06T20:12:16.330Z,7.85
2023-03-06T20:14:45.823Z,10.23
2023-03-06T20:17:12.566Z,4.88
2023-03-06T20:19:39.487Z,8.38
2023-03-06T20:22:06.450Z,6.90
2023-03-06T20:24:33.202Z,9.63
2023-03-06T20:26:59.960Z,8.73
2023-03-06T20:29:28.419Z,7.55
2023-03-06T20:31:57.291Z,5.57
2023-03-06T20:34:25.489Z,7.47
2023-03-06T20:36:52.858Z,9.45
2023-03-06T20:39:24.266Z,7.30
2023-03-06T20:41:51.007Z,6.55
2023-03-06T20:44:18.949Z,7.13
2023-03-06T20:46:46.152Z,3.85
2023-03-06T20:49:13.520Z,7.75
2023-03-06T20:51:40.871Z,4.50
2023-03-06T20:54:11.061Z,8.07
2023-03-06T20:56:39.652Z,8.77
2023-03-06T20:59:08.421Z,8.98
2023-03-06T21:01:38.426Z,9.00
2023-03-06T21:04:05.387Z,5.97
2023-03-06T21:06:33.095Z,5.25
2023-03-06T21:09:01.104Z,6.88
2023-03-06T21:11:28.868Z,5.55
2023-03-06T21:13:56.076Z,8.23
2023-03-06T21:16:25.840Z,7.32
2023-03-06T21:18:54.811Z,6.97
2023-03-06T21:21:25.047Z,6.60
2023-03-06T21:23:52.311Z,5.85
2023-03-06T21:26:21.484Z,6.00
2023-03-06T21:28:48.344Z,6.05
2023-03-06T21:31:16.963Z,8.27
2023-03-06T21:33:44.324Z,6.78
2023-03-06T21:36:11.231Z,10.55
2023-03-06T21:38:38.384Z,8.70
2023-03-06T21:41:10.818Z,8.05
2023-03-06T21:43:37.881Z,7.53
2023-03-06T21:46:05.046Z,7.38
2023-03-06T21:48:32.420Z,8.13
2023-03-06T21:51:13.429Z,5.20
2023-03-06T21:53:42.652Z,8.20
2023-03-06T21:56:10.748Z,8.07
2023-03-06T21:58:37.745Z,8.02
2023-03-06T22:01:13.612Z,7.32
2023-03-06T22:03:40.522Z,9.02
2023-03-06T22:06:10.374Z,7.05
2023-03-06T22:08:37.114Z,9.32
2023-03-06T22:11:12.000Z,8.05
2023-03-06T22:13:39.748Z,7.40
2023-03-06T22:16:07.473Z,8.82
2023-03-06T22:18:35.214Z,7.38
2023-03-06T22:21:08.379Z,4.60
2023-03-06T22:23:35.234Z,7.43
2023-03-06T22:26:06.420Z,6.93
2023-03-06T22:28:33.468Z,8.70
2023-03-06T22:31:06.757Z,5.05
2023-03-06T22:33:33.623Z,8.48
2023-03-06T22:36:05.311Z,11.90
2023-03-06T22:40:59.569Z,6.35
2023-03-06T22:43:26.402Z,7.30
2023-03-06T22:45:53.264Z,9.15
2023-03-06T22:48:20.880Z,7.22
2023-03-06T22:50:47.707Z,9.43
2023-03-06T22:53:14.559Z,6.13
2023-03-06T22:55:41.606Z,5.85
2023-03-06T22:58:08.366Z,4.45
2023-03-06T23:00:35.128Z,6.10
2023-03-06T23:03:02.196Z,7.60
2023-03-06T23:05:29.786Z,7.22
2023-03-06T23:07:56.683Z,5.63
2023-03-06T23:10:24.212Z,6.85
2023-03-06T23:12:51.023Z,6.40
2023-03-06T23:15:17.925Z,8.45
2023-03-06T23:17:44.936Z,7.53
2023-03-06T23:20:13.333Z,6.20
2023-03-06T23:22:40.213Z,5.50
2023-03-06T23:25:07.347Z,5.80
2023-03-06T23:27:36.141Z,6.10
2023-03-06T23:30:08.999Z,7.45
2023-03-06T23:32:35.885Z,5.45
2023-03-06T23:35:02.649Z,5.10
2023-03-06T23:37:31.017Z,6.43
2023-03-06T23:39:57.774Z,6.57
2023-03-06T23:42:24.929Z,5.45
2023-03-06T23:44:51.808Z,6.75
2023-03-06T23:47:20.114Z,5.70
2023-03-06T23:49:46.938Z,5.65
2023-03-06T23:52:13.744Z,6.30
2023-03-06T23:54:40.616Z,6.63
2023-03-06T23:57:07.552Z,7.25
2023-03-06T23:59:34.341Z,5.90
